sensor_id;sensor_type;location;lat;lon;timestamp;temperature;humidity
22698;DHT22;11516;51.612;7.510;2022-10-13T00:01:56;8.90;99.90
22698;DHT22;11516;51.612;7.510;2022-10-13T00:04:22;8.90;99.90
22698;DHT22;11516;51.612;7.510;2022-10-13T00:06:48;8.90;99.90
22698;DHT22;11516;51.612;7.510;2022-10-13T00:09:13;8.90;99.90
22698;DHT22;11516;51.612;7.510;2022-10-13T00:11:39;8.90;99.90
22698;DHT22;11516;51.612;7.510;2022-10-13T00:14:04;9.00;99.90
22698;DHT22;11516;51.612;7.510;2022-10-13T00:16:31;9.00;99.90
22698;DHT22;11516;51.612;7.510;2022-10-13T00:18:57;9.10;99.90
22698;DHT22;11516;51.612;7.510;2022-10-13T00:21:25;9.10;99.90
22698;DHT22;11516;51.612;7.510;2022-10-13T00:23:52;9.10;99.90
22698;DHT22;11516;51.612;7.510;2022-10-13T00:26:19;9.10;99.90
22698;DHT22;11516;51.612;7.510;2022-10-13T00:28:45;9.20;99.90
22698;DHT22;11516;51.612;7.510;2022-10-13T00:31:23;9.10;99.90
22698;DHT22;11516;51.612;7.510;2022-10-13T00:33:50;9.20;99.90
22698;DHT22;11516;51.612;7.510;2022-10-13T00:36:16;9.20;99.90
22698;DHT22;11516;51.612;7.510;2022-10-13T00:38:42;9.20;99.90
22698;DHT22;11516;51.612;7.510;2022-10-13T00:41:08;9.30;99.90
22698;DHT22;11516;51.612;7.510;2022-10-13T00:43:56;9.30;99.90
22698;DHT22;11516;51.612;7.510;2022-10-13T00:46:25;9.30;99.90
22698;DHT22;11516;51.612;7.510;2022-10-13T00:48:51;9.30;99.90
22698;DHT22;11516;51.612;7.510;2022-10-13T00:51:21;9.30;99.90
22698;DHT22;11516;51.612;7.510;2022-10-13T00:53:48;9.30;99.90
22698;DHT22;11516;51.612;7.510;2022-10-13T00:56:16;9.30;99.90
22698;DHT22;11516;51.612;7.510;2022-10-13T00:58:43;9.30;99.90
22698;DHT22;11516;51.612;7.510;2022-10-13T01:01:09;9.30;99.90
22698;DHT22;11516;51.612;7.510;2022-10-13T01:03:35;9.30;99.90
22698;DHT22;11516;51.612;7.510;2022-10-13T01:06:02;9.30;99.90
22698;DHT22;11516;51.612;7.510;2022-10-13T01:08:30;9.30;99.90
22698;DHT22;11516;51.612;7.510;2022-10-13T01:19:37;9.20;99.90
22698;DHT22;11516;51.612;7.510;2022-10-13T01:25:02;9.20;99.90
22698;DHT22;11516;51.612;7.510;2022-10-13T01:30:47;9.20;99.90
22698;DHT22;11516;51.612;7.510;2022-10-13T01:36:25;9.20;99.90
22698;DHT22;11516;51.612;7.510;2022-10-13T01:41:50;9.20;99.90
22698;DHT22;11516;51.612;7.510;2022-10-13T01:44:28;9.30;99.90
22698;DHT22;11516;51.612;7.510;2022-10-13T01:46:55;9.30;99.90
22698;DHT22;11516;51.612;7.510;2022-10-13T01:49:24;9.30;99.90
22698;DHT22;11516;51.612;7.510;2022-10-13T01:51:52;9.30;99.90
22698;DHT22;11516;51.612;7.510;2022-10-13T01:54:18;9.30;99.90
22698;DHT22;11516;51.612;7.510;2022-10-13T01:56:54;9.30;99.90
22698;DHT22;11516;51.612;7.510;2022-10-13T01:59:20;9.30;99.90
22698;DHT22;11516;51.612;7.510;2022-10-13T02:01:58;9.30;99.90
22698;DHT22;11516;51.612;7.510;2022-10-13T02:04:52;9.30;99.90
22698;DHT22;11516;51.612;7.510;2022-10-13T02:07:46;9.30;99.90
22698;DHT22;11516;51.612;7.510;2022-10-13T02:10:29;9.30;99.90
22698;DHT22;11516;51.612;7.510;2022-10-13T02:13:03;9.50;99.90
22698;DHT22;11516;51.612;7.510;2022-10-13T02:15:35;9.40;99.90
22698;DHT22;11516;51.612;7.510;2022-10-13T02:18:02;9.30;99.90
22698;DHT22;11516;51.612;7.510;2022-10-13T02:20:29;9.40;99.90
22698;DHT22;11516;51.612;7.510;2022-10-13T02:23:01;9.40;99.90
22698;DHT22;11516;51.612;7.510;2022-10-13T02:25:28;9.40;99.90
22698;DHT22;11516;51.612;7.510;2022-10-13T02:27:58;9.50;99.90
22698;DHT22;11516;51.612;7.510;2022-10-13T02:30:27;9.50;99.90
22698;DHT22;11516;51.612;7.510;2022-10-13T02:32:53;9.50;99.90
22698;DHT22;11516;51.612;7.510;2022-10-13T02:35:19;9.50;99.90
22698;DHT22;11516;51.612;7.510;2022-10-13T02:37:45;9.50;99.90
22698;DHT22;11516;51.612;7.510;2022-10-13T02:40:11;9.50;99.90
22698;DHT22;11516;51.612;7.510;2022-10-13T02:42:37;9.50;99.90
22698;DHT22;11516;51.612;7.510;2022-10-13T02:45:03;9.50;99.90
22698;DHT22;11516;51.612;7.510;2022-10-13T02:47:29;9.50;99.90
22698;DHT22;11516;51.612;7.510;2022-10-13T02:49:54;9.50;99.90
22698;DHT22;11516;51.612;7.510;2022-10-13T02:52:20;9.60;99.90
22698;DHT22;11516;51.612;7.510;2022-10-13T02:54:45;9.60;99.90
22698;DHT22;11516;51.612;7.510;2022-10-13T02:57:11;9.60;99.90
22698;DHT22;11516;51.612;7.510;2022-10-13T02:59:36;9.60;99.90
22698;DHT22;11516;51.612;7.510;2022-10-13T03:02:02;9.60;99.90
22698;DHT22;11516;51.612;7.510;2022-10-13T03:04:27;9.70;99.90
22698;DHT22;11516;51.612;7.510;2022-10-13T03:06:53;9.70;99.90
22698;DHT22;11516;51.612;7.510;2022-10-13T03:09:18;9.70;99.90
22698;DHT22;11516;51.612;7.510;2022-10-13T03:11:44;9.70;99.90
22698;DHT22;11516;51.612;7.510;2022-10-13T03:14:10;9.80;99.90
22698;DHT22;11516;51.612;7.510;2022-10-13T03:16:35;9.80;99.90
22698;DHT22;11516;51.612;7.510;2022-10-13T03:19:01;9.80;99.90
22698;DHT22;11516;51.612;7.510;2022-10-13T03:21:27;9.80;99.90
22698;DHT22;11516;51.612;7.510;2022-10-13T03:23:53;9.80;99.90
22698;DHT22;11516;51.612;7.510;2022-10-13T03:26:18;9.80;99.90
22698;DHT22;11516;51.612;7.510;2022-10-13T03:28:49;9.80;99.90
22698;DHT22;11516;51.612;7.510;2022-10-13T03:31:15;9.80;99.90
22698;DHT22;11516;51.612;7.510;2022-10-13T03:33:42;9.80;99.90
22698;DHT22;11516;51.612;7.510;2022-10-13T03:36:09;9.80;99.90
22698;DHT22;11516;51.612;7.510;2022-10-13T03:38:34;9.80;99.90
22698;DHT22;11516;51.612;7.510;2022-10-13T03:41:12;9.80;99.90
22698;DHT22;11516;51.612;7.510;2022-10-13T03:43:38;9.80;99.90
22698;DHT22;11516;51.612;7.510;2022-10-13T03:46:05;9.80;99.90
22698;DHT22;11516;51.612;7.510;2022-10-13T03:48:32;9.90;99.90
22698;DHT22;11516;51.612;7.510;2022-10-13T03:50:58;9.80;99.90
22698;DHT22;11516;51.612;7.510;2022-10-13T03:53:24;9.80;99.90
22698;DHT22;11516;51.612;7.510;2022-10-13T03:55:54;9.90;99.90
22698;DHT22;11516;51.612;7.510;2022-10-13T03:58:22;9.90;99.90
22698;DHT22;11516;51.612;7.510;2022-10-13T04:00:48;9.90;99.90
22698;DHT22;11516;51.612;7.510;2022-10-13T04:03:14;9.90;99.90
22698;DHT22;11516;51.612;7.510;2022-10-13T04:05:40;9.90;99.90
22698;DHT22;11516;51.612;7.510;2022-10-13T04:08:05;9.90;99.90
22698;DHT22;11516;51.612;7.510;2022-10-13T04:10:31;9.90;99.90
22698;DHT22;11516;51.612;7.510;2022-10-13T04:12:57;9.90;99.90
22698;DHT22;11516;51.612;7.510;2022-10-13T04:15:22;10.00;99.90
22698;DHT22;11516;51.612;7.510;2022-10-13T04:17:48;10.00;99.90
22698;DHT22;11516;51.612;7.510;2022-10-13T04:20:13;10.00;99.90
22698;DHT22;11516;51.612;7.510;2022-10-13T04:22:39;10.00;99.90
22698;DHT22;11516;51.612;7.510;2022-10-13T04:25:06;10.00;99.90
22698;DHT22;11516;51.612;7.510;2022-10-13T04:27:31;10.00;99.90
22698;DHT22;11516;51.612;7.510;2022-10-13T04:29:57;10.00;99.90
22698;DHT22;11516;51.612;7.510;2022-10-13T04:32:23;10.00;99.90
22698;DHT22;11516;51.612;7.510;2022-10-13T04:34:49;10.00;99.90
22698;DHT22;11516;51.612;7.510;2022-10-13T04:37:14;10.00;99.90
22698;DHT22;11516;51.612;7.510;2022-10-13T04:39:40;10.00;99.90
22698;DHT22;11516;51.612;7.510;2022-10-13T04:42:05;10.00;99.90
22698;DHT22;11516;51.612;7.510;2022-10-13T04:44:31;10.00;99.90
22698;DHT22;11516;51.612;7.510;2022-10-13T04:46:57;10.10;99.90
22698;DHT22;11516;51.612;7.510;2022-10-13T04:49:23;10.10;99.90
22698;DHT22;11516;51.612;7.510;2022-10-13T04:51:49;10.10;99.90
22698;DHT22;11516;51.612;7.510;2022-10-13T04:54:14;10.00;99.90
22698;DHT22;11516;51.612;7.510;2022-10-13T04:56:41;10.00;99.90
22698;DHT22;11516;51.612;7.510;2022-10-13T04:59:08;10.00;99.90
22698;DHT22;11516;51.612;7.510;2022-10-13T05:01:33;10.00;99.90
22698;DHT22;11516;51.612;7.510;2022-10-13T05:04:01;10.00;99.90
22698;DHT22;11516;51.612;7.510;2022-10-13T05:06:31;10.00;99.90
22698;DHT22;11516;51.612;7.510;2022-10-13T05:08:57;10.00;99.90
22698;DHT22;11516;51.612;7.510;2022-10-13T05:11:23;10.00;99.90
22698;DHT22;11516;51.612;7.510;2022-10-13T05:13:50;10.00;99.90
22698;DHT22;11516;51.612;7.510;2022-10-13T05:16:17;10.10;99.90
22698;DHT22;11516;51.612;7.510;2022-10-13T05:18:44;10.00;99.90
22698;DHT22;11516;51.612;7.510;2022-10-13T05:21:12;10.10;99.90
22698;DHT22;11516;51.612;7.510;2022-10-13T05:23:39;10.10;99.90
22698;DHT22;11516;51.612;7.510;2022-10-13T05:26:07;10.10;99.90
22698;DHT22;11516;51.612;7.510;2022-10-13T05:28:33;10.20;99.90
22698;DHT22;11516;51.612;7.510;2022-10-13T05:33:34;10.20;99.90
22698;DHT22;11516;51.612;7.510;2022-10-13T05:36:29;10.20;99.90
22698;DHT22;11516;51.612;7.510;2022-10-13T05:38:58;10.10;99.90
22698;DHT22;11516;51.612;7.510;2022-10-13T05:41:25;10.10;99.90
22698;DHT22;11516;51.612;7.510;2022-10-13T05:43:58;10.30;99.90
22698;DHT22;11516;51.612;7.510;2022-10-13T05:46:24;10.20;99.90
22698;DHT22;11516;51.612;7.510;2022-10-13T05:48:50;10.20;99.90
22698;DHT22;11516;51.612;7.510;2022-10-13T05:51:19;10.20;99.90
22698;DHT22;11516;51.612;7.510;2022-10-13T05:53:50;10.30;99.90
22698;DHT22;11516;51.612;7.510;2022-10-13T05:56:22;10.30;99.90
22698;DHT22;11516;51.612;7.510;2022-10-13T05:58:51;10.30;99.90
22698;DHT22;11516;51.612;7.510;2022-10-13T06:01:22;10.30;99.90
22698;DHT22;11516;51.612;7.510;2022-10-13T06:03:51;10.20;99.90
22698;DHT22;11516;51.612;7.510;2022-10-13T06:06:18;10.30;99.90
22698;DHT22;11516;51.612;7.510;2022-10-13T06:08:44;10.30;99.90
22698;DHT22;11516;51.612;7.510;2022-10-13T06:11:09;10.30;99.90
22698;DHT22;11516;51.612;7.510;2022-10-13T06:13:35;10.20;99.90
22698;DHT22;11516;51.612;7.510;2022-10-13T06:16:01;10.30;99.90
22698;DHT22;11516;51.612;7.510;2022-10-13T06:18:26;10.40;99.90
22698;DHT22;11516;51.612;7.510;2022-10-13T06:20:52;10.40;99.90
22698;DHT22;11516;51.612;7.510;2022-10-13T06:23:18;10.40;99.90
22698;DHT22;11516;51.612;7.510;2022-10-13T06:25:50;10.40;99.90
22698;DHT22;11516;51.612;7.510;2022-10-13T06:28:16;10.40;99.90
22698;DHT22;11516;51.612;7.510;2022-10-13T06:30:46;10.50;99.90
22698;DHT22;11516;51.612;7.510;2022-10-13T06:33:17;10.50;99.90
22698;DHT22;11516;51.612;7.510;2022-10-13T06:35:42;10.60;99.90
22698;DHT22;11516;51.612;7.510;2022-10-13T06:38:08;10.60;99.90
22698;DHT22;11516;51.612;7.510;2022-10-13T06:40:34;10.60;99.90
22698;DHT22;11516;51.612;7.510;2022-10-13T06:42:59;10.60;99.90
22698;DHT22;11516;51.612;7.510;2022-10-13T06:45:25;10.60;99.90
22698;DHT22;11516;51.612;7.510;2022-10-13T06:47:52;10.60;99.90
22698;DHT22;11516;51.612;7.510;2022-10-13T06:50:19;10.70;99.90
22698;DHT22;11516;51.612;7.510;2022-10-13T06:52:44;10.70;99.90
22698;DHT22;11516;51.612;7.510;2022-10-13T06:55:10;10.80;99.90
22698;DHT22;11516;51.612;7.510;2022-10-13T06:57:37;10.90;99.90
22698;DHT22;11516;51.612;7.510;2022-10-13T07:00:04;11.00;99.90
22698;DHT22;11516;51.612;7.510;2022-10-13T07:02:29;11.00;99.90
22698;DHT22;11516;51.612;7.510;2022-10-13T07:04:55;11.40;99.90
22698;DHT22;11516;51.612;7.510;2022-10-13T07:07:21;11.70;99.90
22698;DHT22;11516;51.612;7.510;2022-10-13T07:09:46;12.00;99.90
22698;DHT22;11516;51.612;7.510;2022-10-13T07:12:13;12.20;99.90
22698;DHT22;11516;51.612;7.510;2022-10-13T07:14:38;12.20;99.90
22698;DHT22;11516;51.612;7.510;2022-10-13T07:17:04;12.40;99.90
22698;DHT22;11516;51.612;7.510;2022-10-13T07:19:29;12.60;99.90
22698;DHT22;11516;51.612;7.510;2022-10-13T07:21:55;12.60;99.90
22698;DHT22;11516;51.612;7.510;2022-10-13T07:24:21;12.80;99.90
22698;DHT22;11516;51.612;7.510;2022-10-13T07:26:46;12.80;99.90
22698;DHT22;11516;51.612;7.510;2022-10-13T07:29:12;12.90;99.90
22698;DHT22;11516;51.612;7.510;2022-10-13T07:31:38;12.90;99.90
22698;DHT22;11516;51.612;7.510;2022-10-13T07:34:04;13.00;99.90
22698;DHT22;11516;51.612;7.510;2022-10-13T07:36:32;13.00;99.90
22698;DHT22;11516;51.612;7.510;2022-10-13T07:38:57;13.10;99.90
22698;DHT22;11516;51.612;7.510;2022-10-13T07:41:23;13.10;99.90
22698;DHT22;11516;51.612;7.510;2022-10-13T07:43:52;13.30;99.90
22698;DHT22;11516;51.612;7.510;2022-10-13T07:46:18;13.40;99.90
22698;DHT22;11516;51.612;7.510;2022-10-13T07:48:43;13.50;99.90
22698;DHT22;11516;51.612;7.510;2022-10-13T07:51:11;13.50;99.90
22698;DHT22;11516;51.612;7.510;2022-10-13T07:53:37;13.60;99.90
22698;DHT22;11516;51.612;7.510;2022-10-13T07:56:05;13.90;99.90
22698;DHT22;11516;51.612;7.510;2022-10-13T07:58:33;13.80;99.90
22698;DHT22;11516;51.612;7.510;2022-10-13T08:01:01;13.90;99.90
22698;DHT22;11516;51.612;7.510;2022-10-13T08:03:27;13.90;99.90
22698;DHT22;11516;51.612;7.510;2022-10-13T08:05:53;14.00;99.90
22698;DHT22;11516;51.612;7.510;2022-10-13T08:08:20;14.00;99.90
22698;DHT22;11516;51.612;7.510;2022-10-13T08:10:46;14.00;99.90
22698;DHT22;11516;51.612;7.510;2022-10-13T08:13:12;14.10;99.90
22698;DHT22;11516;51.612;7.510;2022-10-13T08:15:41;14.00;99.90
22698;DHT22;11516;51.612;7.510;2022-10-13T08:18:09;14.20;99.90
22698;DHT22;11516;51.612;7.510;2022-10-13T08:20:39;14.10;99.90
22698;DHT22;11516;51.612;7.510;2022-10-13T08:23:05;14.20;99.90
22698;DHT22;11516;51.612;7.510;2022-10-13T08:25:35;14.20;99.90
22698;DHT22;11516;51.612;7.510;2022-10-13T08:28:01;14.30;99.90
22698;DHT22;11516;51.612;7.510;2022-10-13T08:30:27;14.30;99.90
22698;DHT22;11516;51.612;7.510;2022-10-13T08:32:52;14.30;99.90
22698;DHT22;11516;51.612;7.510;2022-10-13T08:35:18;14.40;99.90
22698;DHT22;11516;51.612;7.510;2022-10-13T08:37:43;14.40;99.90
22698;DHT22;11516;51.612;7.510;2022-10-13T08:40:16;14.50;99.90
22698;DHT22;11516;51.612;7.510;2022-10-13T08:42:43;14.60;99.90
22698;DHT22;11516;51.612;7.510;2022-10-13T08:45:17;14.70;99.90
22698;DHT22;11516;51.612;7.510;2022-10-13T08:48:32;14.70;99.90
22698;DHT22;11516;51.612;7.510;2022-10-13T08:50:35;14.80;99.90
22698;DHT22;11516;51.612;7.510;2022-10-13T08:53:33;14.70;99.90
22698;DHT22;11516;51.612;7.510;2022-10-13T08:56:01;14.90;99.90
22698;DHT22;11516;51.612;7.510;2022-10-13T08:58:32;14.80;99.90
22698;DHT22;11516;51.612;7.510;2022-10-13T09:03:54;15.00;99.90
22698;DHT22;11516;51.612;7.510;2022-10-13T09:06:42;15.00;99.90
22698;DHT22;11516;51.612;7.510;2022-10-13T09:09:10;15.10;99.90
22698;DHT22;11516;51.612;7.510;2022-10-13T09:11:42;15.20;99.90
22698;DHT22;11516;51.612;7.510;2022-10-13T09:14:22;15.20;99.90
22698;DHT22;11516;51.612;7.510;2022-10-13T09:16:54;15.30;99.90
22698;DHT22;11516;51.612;7.510;2022-10-13T09:19:24;15.30;99.90
22698;DHT22;11516;51.612;7.510;2022-10-13T09:22:12;15.30;99.90
22698;DHT22;11516;51.612;7.510;2022-10-13T09:24:38;15.40;99.90
22698;DHT22;11516;51.612;7.510;2022-10-13T09:27:15;15.40;99.90
22698;DHT22;11516;51.612;7.510;2022-10-13T09:29:42;15.50;99.90
22698;DHT22;11516;51.612;7.510;2022-10-13T09:32:19;15.50;99.90
22698;DHT22;11516;51.612;7.510;2022-10-13T09:34:48;15.50;99.90
22698;DHT22;11516;51.612;7.510;2022-10-13T09:37:21;15.60;99.90
22698;DHT22;11516;51.612;7.510;2022-10-13T09:42:51;15.60;99.90
22698;DHT22;11516;51.612;7.510;2022-10-13T09:45:19;15.60;99.90
22698;DHT22;11516;51.612;7.510;2022-10-13T09:47:54;15.70;99.90
22698;DHT22;11516;51.612;7.510;2022-10-13T09:50:27;15.80;99.90
22698;DHT22;11516;51.612;7.510;2022-10-13T09:53:10;15.90;99.90
22698;DHT22;11516;51.612;7.510;2022-10-13T09:55:39;16.20;99.90
22698;DHT22;11516;51.612;7.510;2022-10-13T09:58:09;16.40;99.90
22698;DHT22;11516;51.612;7.510;2022-10-13T10:00:39;16.70;99.90
22698;DHT22;11516;51.612;7.510;2022-10-13T10:03:23;16.70;99.90
22698;DHT22;11516;51.612;7.510;2022-10-13T10:11:40;16.90;99.90
22698;DHT22;11516;51.612;7.510;2022-10-13T10:14:26;17.10;99.90
22698;DHT22;11516;51.612;7.510;2022-10-13T10:20:16;17.30;99.90
22698;DHT22;11516;51.612;7.510;2022-10-13T10:22:57;17.50;99.90
22698;DHT22;11516;51.612;7.510;2022-10-13T10:25:41;17.70;99.90
22698;DHT22;11516;51.612;7.510;2022-10-13T10:28:38;17.80;99.90
22698;DHT22;11516;51.612;7.510;2022-10-13T10:37:09;18.00;99.90
22698;DHT22;11516;51.612;7.510;2022-10-13T10:39:47;18.10;99.90
22698;DHT22;11516;51.612;7.510;2022-10-13T10:45:03;18.30;99.90
22698;DHT22;11516;51.612;7.510;2022-10-13T10:47:41;18.30;99.90
22698;DHT22;11516;51.612;7.510;2022-10-13T10:50:13;18.40;99.90
22698;DHT22;11516;51.612;7.510;2022-10-13T10:55:46;18.20;99.90
22698;DHT22;11516;51.612;7.510;2022-10-13T11:03:42;17.90;99.90
22698;DHT22;11516;51.612;7.510;2022-10-13T11:08:46;17.80;99.90
22698;DHT22;11516;51.612;7.510;2022-10-13T11:13:52;17.90;99.90
22698;DHT22;11516;51.612;7.510;2022-10-13T11:16:58;18.00;99.90
22698;DHT22;11516;51.612;7.510;2022-10-13T11:19:46;18.40;99.90
22698;DHT22;11516;51.612;7.510;2022-10-13T11:22:17;18.80;99.90
22698;DHT22;11516;51.612;7.510;2022-10-13T11:24:54;18.60;99.90
22698;DHT22;11516;51.612;7.510;2022-10-13T11:27:37;18.50;99.90
22698;DHT22;11516;51.612;7.510;2022-10-13T11:30:46;18.50;99.90
22698;DHT22;11516;51.612;7.510;2022-10-13T11:50:41;20.60;99.90
22698;DHT22;11516;51.612;7.510;2022-10-13T11:53:32;20.80;99.90
22698;DHT22;11516;51.612;7.510;2022-10-13T11:56:08;20.40;99.90
22698;DHT22;11516;51.612;7.510;2022-10-13T11:58:45;20.40;99.90
22698;DHT22;11516;51.612;7.510;2022-10-13T12:01:15;20.30;99.90
22698;DHT22;11516;51.612;7.510;2022-10-13T12:03:45;20.10;99.90
22698;DHT22;11516;51.612;7.510;2022-10-13T12:06:24;20.20;99.90
22698;DHT22;11516;51.612;7.510;2022-10-13T12:08:56;20.40;99.90
22698;DHT22;11516;51.612;7.510;2022-10-13T12:11:28;20.10;99.90
22698;DHT22;11516;51.612;7.510;2022-10-13T12:14:04;19.70;99.90
22698;DHT22;11516;51.612;7.510;2022-10-13T12:16:36;19.80;99.90
22698;DHT22;11516;51.612;7.510;2022-10-13T12:19:25;19.70;99.90
22698;DHT22;11516;51.612;7.510;2022-10-13T12:22:01;19.20;99.90
22698;DHT22;11516;51.612;7.510;2022-10-13T12:24:28;18.80;99.90
22698;DHT22;11516;51.612;7.510;2022-10-13T12:26:55;18.70;99.90
22698;DHT22;11516;51.612;7.510;2022-10-13T12:29:25;18.80;99.90
22698;DHT22;11516;51.612;7.510;2022-10-13T12:31:52;18.70;99.90
22698;DHT22;11516;51.612;7.510;2022-10-13T12:34:29;18.50;99.90
22698;DHT22;11516;51.612;7.510;2022-10-13T12:37:03;18.40;99.90
22698;DHT22;11516;51.612;7.510;2022-10-13T12:39:32;18.30;99.90
22698;DHT22;11516;51.612;7.510;2022-10-13T12:42:00;18.20;99.90
22698;DHT22;11516;51.612;7.510;2022-10-13T12:44:36;18.10;99.90
22698;DHT22;11516;51.612;7.510;2022-10-13T12:47:04;17.90;99.90
22698;DHT22;11516;51.612;7.510;2022-10-13T12:49:34;18.00;99.90
22698;DHT22;11516;51.612;7.510;2022-10-13T12:52:14;17.70;99.90
22698;DHT22;11516;51.612;7.510;2022-10-13T12:55:00;17.70;99.90
22698;DHT22;11516;51.612;7.510;2022-10-13T12:57:32;17.60;99.90
22698;DHT22;11516;51.612;7.510;2022-10-13T13:02:58;17.50;99.90
22698;DHT22;11516;51.612;7.510;2022-10-13T13:05:34;17.50;99.90
22698;DHT22;11516;51.612;7.510;2022-10-13T13:08:18;17.40;99.90
22698;DHT22;11516;51.612;7.510;2022-10-13T13:10:56;17.40;99.90
22698;DHT22;11516;51.612;7.510;2022-10-13T13:13:23;17.30;99.90
22698;DHT22;11516;51.612;7.510;2022-10-13T13:15:49;17.20;99.90
22698;DHT22;11516;51.612;7.510;2022-10-13T13:18:38;17.20;99.90
22698;DHT22;11516;51.612;7.510;2022-10-13T13:21:10;17.20;99.90
22698;DHT22;11516;51.612;7.510;2022-10-13T13:23:36;17.20;99.90
22698;DHT22;11516;51.612;7.510;2022-10-13T13:26:09;17.10;99.90
22698;DHT22;11516;51.612;7.510;2022-10-13T13:28:35;17.10;99.90
22698;DHT22;11516;51.612;7.510;2022-10-13T13:31:01;17.00;99.90
22698;DHT22;11516;51.612;7.510;2022-10-13T13:33:26;17.00;99.90
22698;DHT22;11516;51.612;7.510;2022-10-13T13:35:52;17.00;99.90
22698;DHT22;11516;51.612;7.510;2022-10-13T13:38:18;17.00;99.90
22698;DHT22;11516;51.612;7.510;2022-10-13T13:40:43;17.00;99.90
22698;DHT22;11516;51.612;7.510;2022-10-13T13:43:09;16.70;99.90
22698;DHT22;11516;51.612;7.510;2022-10-13T13:45:35;16.50;99.90
22698;DHT22;11516;51.612;7.510;2022-10-13T13:48:01;16.40;99.90
22698;DHT22;11516;51.612;7.510;2022-10-13T13:50:31;16.40;99.90
22698;DHT22;11516;51.612;7.510;2022-10-13T13:52:57;16.10;99.90
22698;DHT22;11516;51.612;7.510;2022-10-13T13:55:24;16.00;99.90
22698;DHT22;11516;51.612;7.510;2022-10-13T13:57:49;15.90;99.90
22698;DHT22;11516;51.612;7.510;2022-10-13T14:00:16;15.80;99.90
22698;DHT22;11516;51.612;7.510;2022-10-13T14:02:42;15.70;99.90
22698;DHT22;11516;51.612;7.510;2022-10-13T14:05:08;15.60;99.90
22698;DHT22;11516;51.612;7.510;2022-10-13T14:07:35;15.50;99.90
22698;DHT22;11516;51.612;7.510;2022-10-13T14:10:00;15.50;99.90
22698;DHT22;11516;51.612;7.510;2022-10-13T14:12:28;15.50;99.90
22698;DHT22;11516;51.612;7.510;2022-10-13T14:14:54;15.50;99.90
22698;DHT22;11516;51.612;7.510;2022-10-13T14:17:20;15.50;99.90
22698;DHT22;11516;51.612;7.510;2022-10-13T14:19:45;15.50;99.90
22698;DHT22;11516;51.612;7.510;2022-10-13T14:22:11;15.50;99.90
22698;DHT22;11516;51.612;7.510;2022-10-13T14:24:36;15.40;99.90
22698;DHT22;11516;51.612;7.510;2022-10-13T14:27:02;15.40;99.90
22698;DHT22;11516;51.612;7.510;2022-10-13T14:29:30;15.50;99.90
22698;DHT22;11516;51.612;7.510;2022-10-13T14:31:56;15.30;99.90
22698;DHT22;11516;51.612;7.510;2022-10-13T14:34:21;15.50;99.90
22698;DHT22;11516;51.612;7.510;2022-10-13T14:36:50;15.50;99.90
22698;DHT22;11516;51.612;7.510;2022-10-13T14:39:15;15.50;99.90
22698;DHT22;11516;51.612;7.510;2022-10-13T14:41:41;15.60;99.90
22698;DHT22;11516;51.612;7.510;2022-10-13T14:44:10;15.50;99.90
22698;DHT22;11516;51.612;7.510;2022-10-13T14:46:35;15.70;99.90
22698;DHT22;11516;51.612;7.510;2022-10-13T14:49:01;15.50;99.90
22698;DHT22;11516;51.612;7.510;2022-10-13T14:51:26;15.60;99.90
22698;DHT22;11516;51.612;7.510;2022-10-13T14:53:52;15.60;99.90
22698;DHT22;11516;51.612;7.510;2022-10-13T14:56:20;15.50;99.90
22698;DHT22;11516;51.612;7.510;2022-10-13T14:58:47;15.50;99.90
22698;DHT22;11516;51.612;7.510;2022-10-13T15:01:16;15.60;99.90
22698;DHT22;11516;51.612;7.510;2022-10-13T15:03:43;15.50;99.90
22698;DHT22;11516;51.612;7.510;2022-10-13T15:06:19;15.60;99.90
22698;DHT22;11516;51.612;7.510;2022-10-13T15:08:46;15.50;99.90
22698;DHT22;11516;51.612;7.510;2022-10-13T15:11:12;15.40;99.90
22698;DHT22;11516;51.612;7.510;2022-10-13T15:13:41;15.40;99.90
22698;DHT22;11516;51.612;7.510;2022-10-13T15:16:11;15.30;99.90
22698;DHT22;11516;51.612;7.510;2022-10-13T15:18:38;15.30;99.90
22698;DHT22;11516;51.612;7.510;2022-10-13T15:21:03;15.40;99.90
22698;DHT22;11516;51.612;7.510;2022-10-13T15:23:29;15.30;99.90
22698;DHT22;11516;51.612;7.510;2022-10-13T15:26:00;15.40;99.90
22698;DHT22;11516;51.612;7.510;2022-10-13T15:28:28;15.30;99.90
22698;DHT22;11516;51.612;7.510;2022-10-13T15:30:54;15.30;99.90
22698;DHT22;11516;51.612;7.510;2022-10-13T15:33:20;15.30;99.90
22698;DHT22;11516;51.612;7.510;2022-10-13T15:35:49;15.20;99.90
22698;DHT22;11516;51.612;7.510;2022-10-13T15:38:16;15.30;99.90
22698;DHT22;11516;51.612;7.510;2022-10-13T15:40:42;15.20;99.90
22698;DHT22;11516;51.612;7.510;2022-10-13T15:43:09;15.20;99.90
22698;DHT22;11516;51.612;7.510;2022-10-13T15:45:34;15.30;99.90
22698;DHT22;11516;51.612;7.510;2022-10-13T15:48:00;15.30;99.90
22698;DHT22;11516;51.612;7.510;2022-10-13T15:50:26;15.30;99.90
22698;DHT22;11516;51.612;7.510;2022-10-13T15:52:52;15.20;99.90
22698;DHT22;11516;51.612;7.510;2022-10-13T15:55:18;15.20;99.90
22698;DHT22;11516;51.612;7.510;2022-10-13T15:57:43;15.20;99.90
22698;DHT22;11516;51.612;7.510;2022-10-13T16:00:11;15.20;99.90
22698;DHT22;11516;51.612;7.510;2022-10-13T16:02:38;15.20;99.90
22698;DHT22;11516;51.612;7.510;2022-10-13T16:05:06;15.20;99.90
22698;DHT22;11516;51.612;7.510;2022-10-13T16:07:33;15.20;99.90
22698;DHT22;11516;51.612;7.510;2022-10-13T16:09:59;15.20;99.90
22698;DHT22;11516;51.612;7.510;2022-10-13T16:12:27;15.10;99.90
22698;DHT22;11516;51.612;7.510;2022-10-13T16:14:53;15.00;99.90
22698;DHT22;11516;51.612;7.510;2022-10-13T16:17:18;15.10;99.90
22698;DHT22;11516;51.612;7.510;2022-10-13T16:19:44;15.10;99.90
22698;DHT22;11516;51.612;7.510;2022-10-13T16:22:09;15.10;99.90
22698;DHT22;11516;51.612;7.510;2022-10-13T16:24:35;15.10;99.90
22698;DHT22;11516;51.612;7.510;2022-10-13T16:27:01;15.10;99.90
22698;DHT22;11516;51.612;7.510;2022-10-13T16:29:26;15.10;99.90
22698;DHT22;11516;51.612;7.510;2022-10-13T16:31:52;15.00;99.90
22698;DHT22;11516;51.612;7.510;2022-10-13T16:34:18;14.90;99.90
22698;DHT22;11516;51.612;7.510;2022-10-13T16:36:44;14.90;99.90
22698;DHT22;11516;51.612;7.510;2022-10-13T16:39:10;14.90;99.90
22698;DHT22;11516;51.612;7.510;2022-10-13T16:41:35;14.90;99.90
22698;DHT22;11516;51.612;7.510;2022-10-13T16:44:03;14.80;99.90
22698;DHT22;11516;51.612;7.510;2022-10-13T16:46:28;14.80;99.90
22698;DHT22;11516;51.612;7.510;2022-10-13T16:48:54;14.80;99.90
22698;DHT22;11516;51.612;7.510;2022-10-13T16:51:22;14.80;99.90
22698;DHT22;11516;51.612;7.510;2022-10-13T16:53:54;14.70;99.90
22698;DHT22;11516;51.612;7.510;2022-10-13T16:56:20;14.70;99.90
22698;DHT22;11516;51.612;7.510;2022-10-13T16:59:01;14.70;99.90
22698;DHT22;11516;51.612;7.510;2022-10-13T17:01:28;14.70;99.90
22698;DHT22;11516;51.612;7.510;2022-10-13T17:03:54;14.60;99.90
22698;DHT22;11516;51.612;7.510;2022-10-13T17:06:23;14.60;99.90
22698;DHT22;11516;51.612;7.510;2022-10-13T17:08:49;14.60;99.90